Time;durP1;ratioP1;P1;durP2;ratioP2;P2;SDS_P1;SDS_P2;PMS_P1;PMS_P2;Temp;Humidity;BMP_temperature;BMP_pressure;BME280_temperature;BME280_humidity;BME280_pressure;Samples;Min_cycle;Max_cycle;Signal;HPM_P1;HPM_P2
2022/12/22 03:28:02;;;;;;;3.60;2.10;;;;;;;4.26;69.68;99327.09;4467160;32;34000;-71
2022/12/22 03:30:31;;;;;;;1.15;1.15;;;;;;;4.25;69.96;99321.91;4469893;32;34941;-71
2022/12/22 03:32:59;;;;;;;3.60;2.03;;;;;;;3.90;71.33;99317.09;4455942;32;35195;-72
2022/12/22 03:35:27;;;;;;;6.68;6.12;;;;;;;3.99;71.37;99305.22;4455960;32;33576;-71
2022/12/22 03:37:55;;;;;;;2.25;2.15;;;;;;;3.87;72.11;99304.19;4469824;32;34076;-72
2022/12/22 03:40:23;;;;;;;1.42;1.33;;;;;;;4.18;71.04;99297.75;4470037;32;35856;-71
2022/12/22 03:48:25;;;;;;;;;;;;;;;3.97;72.77;99293.16;4458176;32;33753;-71
2022/12/22 03:50:53;;;;;;;2.00;1.75;;;;;;;3.69;74.33;99282.44;4469686;32;36050;-71
2022/12/22 03:53:21;;;;;;;1.60;1.60;;;;;;;4.29;72.31;99293.63;4469640;32;35200;-71
2022/12/22 03:55:49;;;;;;;4.68;4.25;;;;;;;4.25;72.23;99298.72;4469688;32;33321;-71
2022/12/22 03:58:17;;;;;;;2.67;2.50;;;;;;;3.75;74.68;99303.12;4469393;32;34324;-71
2022/12/22 04:00:45;;;;;;;2.78;2.58;;;;;;;4.06;74.06;99301.03;4469513;32;34912;-71
2022/12/22 04:03:14;;;;;;;18.87;11.18;;;;;;;3.91;74.50;99303.38;4469493;32;34446;-71
2022/12/22 04:05:42;;;;;;;12.30;11.07;;;;;;;4.28;73.54;99315.09;4469416;32;34343;-71
2022/12/22 04:08:10;;;;;;;3.00;2.80;;;;;;;4.04;74.30;99320.78;4455453;32;33981;-71
2022/12/22 04:13:25;;;;;;;1.27;1.27;;;;;;;3.92;74.60;99326.59;4469396;32;35349;-71
2022/12/22 04:15:53;;;;;;;7.53;4.62;;;;;;;3.14;79.08;99335.50;4469292;32;33642;-71
2022/12/22 04:18:21;;;;;;;3.62;2.30;;;;;;;3.88;76.87;99334.22;4455168;32;33031;-71
2022/12/22 04:20:49;;;;;;;1.35;1.35;;;;;;;4.07;75.41;99336.25;4469114;32;35846;-71
2022/12/22 04:23:18;;;;;;;2.83;2.50;;;;;;;3.22;78.72;99326.25;4469171;32;34538;-71
2022/12/22 04:25:46;;;;;;;1.62;1.50;;;;;;;3.19;79.58;99334.78;4469063;32;34359;-71
2022/12/22 04:28:14;;;;;;;2.87;2.60;;;;;;;3.73;76.97;99329.72;4469129;32;33954;-71
2022/12/22 04:30:42;;;;;;;2.92;2.60;;;;;;;3.81;75.70;99328.09;4469072;32;35847;-71
2022/12/22 04:33:10;;;;;;;4.37;3.97;;;;;;;3.73;75.88;99327.12;4468971;32;34179;-71
2022/12/22 04:35:38;;;;;;;3.28;2.97;;;;;;;3.48;76.94;99313.84;4469053;32;33342;-71
2022/12/22 04:38:07;;;;;;;2.33;2.20;;;;;;;3.15;78.07;99309.81;4468881;32;33959;-71
2022/12/22 04:40:35;;;;;;;1.48;1.37;;;;;;;3.25;78.45;99300.56;4470885;32;35051;-71
2022/12/22 04:43:03;;;;;;;4.78;4.20;;;;;;;3.31;78.43;99305.81;4471204;32;34953;-72
2022/12/22 04:45:31;;;;;;;7.25;6.65;;;;;;;2.90;79.70;99305.91;4471179;32;33471;-71
2022/12/22 04:47:59;;;;;;;1.00;1.00;;;;;;;2.69;80.51;99303.78;4471225;32;33825;-71
2022/12/22 04:50:27;;;;;;;2.17;1.98;;;;;;;2.62;81.29;99296.78;4471074;32;35883;-70
2022/12/22 04:52:56;;;;;;;1.75;1.65;;;;;;;3.59;77.75;99304.59;4471160;32;34402;-72
2022/12/22 04:55:24;;;;;;;4.10;3.70;;;;;;;4.25;73.90;99304.72;4471167;32;33428;-71
2022/12/22 04:57:52;;;;;;;2.33;2.12;;;;;;;4.31;73.36;99299.66;4471068;32;33828;-72
2022/12/22 05:00:20;;;;;;;2.22;2.12;;;;;;;3.49;76.53;99305.25;4471001;32;35131;-71
2022/12/22 05:02:48;;;;;;;1.48;1.37;;;;;;;4.16;74.46;99300.34;4470948;32;34576;-71
2022/12/22 05:05:16;;;;;;;1.45;1.40;;;;;;;3.65;75.55;99295.22;4457235;32;34358;-72
2022/12/22 05:07:45;;;;;;;2.78;1.23;;;;;;;3.09;79.28;99294.28;4457133;32;33838;-72
2022/12/22 05:10:13;;;;;;;0.75;0.75;;;;;;;3.08;79.09;99297.69;4471051;32;35897;-71
2022/12/22 05:12:56;;;;;;;2.35;2.12;;;;;;;3.24;78.68;99303.97;4470890;32;34430;-72
2022/12/22 05:15:32;;;;;;;2.35;2.25;;;;;;;3.35;78.23;99301.59;4471166;32;34236;-71
2022/12/22 05:18:01;;;;;;;4.22;2.75;;;;;;;3.07;80.28;99302.78;4456998;32;34123;-71
2022/12/22 05:20:29;;;;;;;5.47;4.93;;;;;;;2.30;84.71;99298.69;4470781;32;35978;-71
2022/12/22 05:22:58;;;;;;;1.92;1.83;;;;;;;2.53;85.26;99294.91;4470918;32;34454;-71
2022/12/22 05:25:26;;;;;;;19.58;6.22;;;;;;;2.92;82.01;99299.09;4470932;32;33530;-72
2022/12/22 05:28:02;;;;;;;2.47;2.27;;;;;;;3.03;82.12;99294.16;4470647;32;34129;-71
2022/12/22 05:30:30;;;;;;;2.35;2.15;;;;;;;3.18;80.92;99302.16;4470840;32;35808;-71
2022/12/22 05:32:58;;;;;;;4.15;2.03;;;;;;;3.71;78.99;99303.06;4470906;32;35278;-71
2022/12/22 05:35:26;;;;;;;2.70;2.17;;;;;;;4.02;77.23;99306.97;4470838;32;33319;-72
2022/12/22 05:37:54;;;;;;;3.55;3.35;;;;;;;3.50;78.72;99312.16;4470811;32;33795;-71
2022/12/22 05:40:22;;;;;;;3.40;3.05;;;;;;;3.28;79.90;99305.75;4470724;32;34983;-71
2022/12/22 05:42:51;;;;;;;3.67;3.37;;;;;;;3.07;81.21;99295.97;4470748;32;34447;-71
2022/12/22 05:45:20;;;;;;;2.55;2.37;;;;;;;3.31;80.63;99297.25;4470809;32;34194;-70
2022/12/22 05:47:49;;;;;;;2.08;1.95;;;;;;;3.35;80.39;99296.44;4470789;32;34658;-72
2022/12/22 05:50:20;;;;;;;1.23;1.20;;;;;;;3.68;78.61;99297.88;4470460;32;36675;-72
2022/12/22 05:52:57;;;;;;;2.67;2.40;;;;;;;3.60;79.60;99295.19;4470626;32;34523;-72
2022/12/22 05:55:26;;;;;;;1.83;1.67;;;;;;;2.96;81.57;99292.31;4470673;32;33773;-72
2022/12/22 05:57:54;;;;;;;2.78;2.58;;;;;;;3.31;80.43;99294.66;4470766;32;33919;-72
2022/12/22 06:00:22;;;;;;;1.85;1.62;;;;;;;3.55;78.95;99294.22;4470633;32;35988;-71
2022/12/22 06:02:50;;;;;;;8.07;4.87;;;;;;;3.50;79.60;99291.56;4470607;32;34440;-72
2022/12/22 06:05:19;;;;;;;5.53;2.25;;;;;;;3.50;79.19;99294.13;4470631;32;33557;-71
2022/12/22 06:07:47;;;;;;;1.65;1.55;;;;;;;3.55;78.83;99295.09;4470591;32;33873;-71
2022/12/22 06:10:16;;;;;;;1.40;1.30;;;;;;;4.32;75.91;99290.22;4470966;32;35461;-72
2022/12/22 06:12:44;;;;;;;4.43;3.15;;;;;;;3.45;78.18;99298.34;4470613;32;34466;-72
2022/12/22 06:15:13;;;;;;;1.55;1.48;;;;;;;3.29;79.27;99296.34;4470618;32;34332;-72
2022/12/22 06:17:42;;;;;;;3.50;3.00;;;;;;;3.48;78.60;99290.69;4470499;32;33930;-72
2022/12/22 06:20:13;;;;;;;4.78;4.43;;;;;;;3.29;78.78;99288.62;4470384;32;35137;-72
2022/12/22 06:22:41;;;;;;;1.33;1.23;;;;;;;3.77;77.34;99285.97;4456565;32;34399;-72
2022/12/22 06:25:09;;;;;;;1.73;1.62;;;;;;;3.16;79.16;99282.38;4456647;32;34212;-72
2022/12/22 06:27:46;;;;;;;6.80;3.15;;;;;;;3.17;79.21;99297.00;4470502;32;33914;-72
2022/12/22 06:30:15;;;;;;;4.85;4.47;;;;;;;2.97;80.34;99294.91;4470413;32;35917;-72
2022/12/22 06:32:43;;;;;;;3.00;2.72;;;;;;;3.55;77.92;99289.94;4470521;32;34080;-72
2022/12/22 06:35:11;;;;;;;1.10;1.08;;;;;;;2.81;80.50;99303.19;4470409;32;33444;-72
2022/12/22 06:37:40;;;;;;;4.72;2.10;;;;;;;3.21;79.31;99317.66;4456617;32;34057;-72
2022/12/22 06:40:09;;;;;;;1.40;1.37;;;;;;;2.99;79.53;99302.66;4456334;32;35139;-72
2022/12/22 06:45:31;;;;;;;8.70;7.95;;;;;;;3.26;77.36;99311.72;4459382;32;33640;-70
2022/12/22 06:47:59;;;;;;;3.37;3.17;;;;;;;2.34;83.34;99316.75;4470463;32;34761;-71
2022/12/22 06:50:27;;;;;;;3.45;3.15;;;;;;;2.07;85.49;99317.03;4456391;32;34999;-72
2022/12/22 06:52:55;;;;;;;8.38;6.35;;;;;;;3.14;81.63;99315.81;4470381;32;34510;-73
2022/12/22 06:55:23;;;;;;;4.07;3.70;;;;;;;2.58;82.79;99311.28;4470270;32;33331;-72
2022/12/22 06:57:52;;;;;;;5.15;3.90;;;;;;;2.61;83.58;99318.19;4456324;32;34724;-72
2022/12/22 07:00:20;;;;;;;4.82;3.58;;;;;;;2.86;82.76;99317.00;4470348;32;35846;-70
2022/12/22 07:02:48;;;;;;;1.65;1.55;;;;;;;3.77;78.79;99321.19;4469090;32;35202;-73
2022/12/22 07:05:17;;;;;;;1.37;1.35;;;;;;;4.12;76.38;99323.44;4470267;32;33392;-72
2022/12/22 07:07:47;;;;;;;5.00;4.62;;;;;;;3.79;77.77;99333.25;4470117;32;33837;-72
2022/12/22 07:10:15;;;;;;;9.55;6.43;;;;;;;3.75;77.77;99328.03;4470215;32;34910;-73
2022/12/22 07:12:43;;;;;;;4.60;4.20;;;;;;;3.71;78.19;99336.56;4470002;32;35242;-72
2022/12/22 07:15:12;;;;;;;3.58;3.30;;;;;;;2.95;82.13;99314.59;4470187;32;34316;-72
2022/12/22 07:17:40;;;;;;;1.30;1.25;;;;;;;2.79;83.07;99313.44;4470097;32;33858;-72
2022/12/22 07:20:09;;;;;;;2.92;2.72;;;;;;;2.93;83.23;99315.37;4470041;32;35083;-72
2022/12/22 07:22:37;;;;;;;6.20;3.25;;;;;;;3.32;81.21;99310.13;4470035;32;34482;-72
2022/12/22 07:25:06;;;;;;;4.37;2.90;;;;;;;3.45;80.91;99318.06;4470035;32;33552;-71
2022/12/22 07:27:34;;;;;;;2.55;2.35;;;;;;;3.65;80.37;99320.97;4469762;32;34795;-71
2022/12/22 07:30:03;;;;;;;5.12;4.70;;;;;;;3.07;82.14;99325.94;4469883;32;35817;-72
2022/12/22 07:32:31;;;;;;;2.15;2.05;;;;;;;3.23;82.16;99328.00;4469870;32;34590;-70
2022/12/22 07:34:59;;;;;;;4.28;3.87;;;;;;;3.20;81.95;99328.78;4469960;32;33745;-71
2022/12/22 07:37:32;;;;;;;1.98;1.73;;;;;;;3.15;82.56;99330.41;4469972;32;33908;-72
2022/12/22 07:40:01;;;;;;;2.33;2.17;;;;;;;2.92;82.58;99329.09;4469672;32;35095;-72
2022/12/22 07:42:44;;;;;;;3.62;3.33;;;;;;;3.05;82.54;99323.34;4469880;32;34439;-73
2022/12/22 07:45:14;;;;;;;5.12;4.80;;;;;;;3.19;81.94;99328.75;4469779;32;34123;-72
2022/12/22 07:47:42;;;;;;;1.62;1.52;;;;;;;3.25;81.63;99343.44;4469737;32;33878;-72
2022/12/22 07:50:26;;;;;;;13.10;5.57;;;;;;;3.16;83.01;99341.56;4469748;32;36019;-70
2022/12/22 07:52:55;;;;;;;2.58;2.37;;;;;;;2.93;83.19;99343.69;4469656;32;34374;-71
2022/12/22 07:55:25;;;;;;;2.67;2.17;;;;;;;3.69;80.23;99343.34;4469601;32;33445;-73
2022/12/22 07:57:54;;;;;;;10.48;4.95;;;;;;;2.98;82.40;99331.78;4455584;32;34145;-73
2022/12/22 08:00:23;;;;;;;1.73;1.62;;;;;;;3.37;80.78;99326.53;4455758;32;35179;-73
2022/12/22 08:02:53;;;;;;;2.97;2.78;;;;;;;2.72;83.76;99328.69;4469458;32;34564;-70
2022/12/22 08:05:23;;;;;;;3.90;3.60;;;;;;;3.12;82.58;99332.06;4469522;32;33437;-69
2022/12/22 08:07:52;;;;;;;3.50;3.17;;;;;;;3.15;83.73;99340.69;4469527;32;33221;-70
2022/12/22 08:10:20;;;;;;;3.00;2.70;;;;;;;3.27;83.69;99334.91;4469323;32;35826;-70
2022/12/22 08:12:48;;;;;;;3.60;3.30;;;;;;;3.69;81.99;99343.34;4469378;32;34571;-70
2022/12/22 08:15:17;;;;;;;1.35;1.30;;;;;;;4.41;78.95;99341.03;4456398;32;34004;-70
2022/12/22 08:17:45;;;;;;;2.83;2.15;;;;;;;4.03;80.86;99352.53;4471315;32;33946;-72
2022/12/22 08:20:13;;;;;;;1.58;1.48;;;;;;;3.76;80.63;99347.78;4471245;32;34906;-72
2022/12/22 08:22:41;;;;;;;3.60;3.30;;;;;;;3.30;81.33;99334.09;4471304;32;34445;-70
2022/12/22 08:25:09;;;;;;;2.08;1.98;;;;;;;3.86;79.00;99325.63;4471280;32;34434;-71
2022/12/22 08:27:45;;;;;;;1.37;1.35;;;;;;;4.60;75.85;99316.38;4471111;32;33883;-72
2022/12/22 08:30:13;;;;;;;3.97;2.30;;;;;;;4.20;75.89;99316.72;4457429;32;35056;-72
2022/12/22 08:32:42;;;;;;;8.70;7.12;;;;;;;3.98;76.45;99325.81;4471351;32;34385;-72
2022/12/22 08:35:10;;;;;;;1.37;1.27;;;;;;;4.29;75.21;99332.28;4457199;32;32007;-71
2022/12/22 08:37:41;;;;;;;3.20;1.60;;;;;;;4.61;73.07;99329.28;4471263;32;33829;-72
2022/12/22 08:40:13;;;;;;;3.40;3.03;;;;;;;3.88;74.88;99332.53;4471134;32;35062;-72
2022/12/22 08:42:42;;;;;;;2.87;2.62;;;;;;;3.89;74.88;99326.53;4444451;32;33845;-74
2022/12/22 08:45:11;;;;;;;5.85;5.28;;;;;;;3.64;75.08;99334.72;4471238;32;34471;-73
2022/12/22 08:47:39;;;;;;;1.55;1.45;;;;;;;3.35;77.31;99353.06;4471180;32;33841;-70
2022/12/22 08:50:08;;;;;;;3.03;2.60;;;;;;;3.19;79.62;99357.06;4471173;32;35892;-69
2022/12/22 08:52:36;;;;;;;2.42;2.22;;;;;;;3.83;75.90;99347.06;4471057;32;35305;-70
2022/12/22 08:55:05;;;;;;;5.32;4.87;;;;;;;3.36;78.21;99344.50;4471140;32;34263;-70
2022/12/22 08:57:34;;;;;;;1.48;1.37;;;;;;;3.68;76.81;99337.34;4471118;32;33932;-69
2022/12/22 09:00:05;;;;;;;4.85;3.60;;;;;;;3.65;78.36;99332.13;4471030;32;35858;-70
2022/12/22 09:02:33;;;;;;;8.88;7.40;;;;;;;4.13;72.78;99338.94;4471128;32;35254;-73
2022/12/22 09:05:02;;;;;;;1.15;1.08;;;;;;;3.76;74.50;99322.91;4457338;32;33379;-70
2022/12/22 09:07:31;;;;;;;3.05;2.72;;;;;;;4.11;74.65;99319.12;4471320;32;33786;-70
2022/12/22 09:09:59;;;;;;;3.03;2.83;;;;;;;3.99;75.34;99315.53;4471036;32;35134;-70
2022/12/22 09:12:27;;;;;;;3.55;3.28;;;;;;;4.35;72.06;99327.22;4457069;32;35230;-69
2022/12/22 09:14:56;;;;;;;3.42;2.72;;;;;;;4.09;73.24;99319.09;4470989;32;33512;-71
2022/12/22 09:17:24;;;;;;;6.15;2.58;;;;;;;3.78;75.31;99312.63;4470973;32;34722;-71
2022/12/22 09:19:52;;;;;;;2.42;2.22;;;;;;;3.84;74.04;99315.28;4470720;32;35067;-71
2022/12/22 09:22:20;;;;;;;5.62;2.72;;;;;;;3.77;74.68;99313.47;4456988;32;34590;-71
2022/12/22 09:24:55;;;;;;;3.60;1.75;;;;;;;3.60;76.36;99311.47;4470842;32;34244;-70
2022/12/22 09:27:24;;;;;;;2.60;2.40;;;;;;;3.44;76.04;99308.59;4450046;32;240356;-72
2022/12/22 09:29:52;;;;;;;1.58;1.48;;;;;;;3.08;77.29;99292.53;4456654;32;34310;-70
2022/12/22 09:32:21;;;;;;;4.68;4.28;;;;;;;3.27;77.32;99283.44;4470821;32;34418;-71
2022/12/22 09:34:49;;;;;;;2.55;2.35;;;;;;;3.45;78.75;99292.34;4470959;32;33334;-71
2022/12/22 09:37:17;;;;;;;2.47;1.42;;;;;;;3.16;77.34;99296.12;4470716;32;34719;-71
2022/12/22 09:39:46;;;;;;;4.80;4.15;;;;;;;3.50;76.82;99289.00;4470742;32;35485;-72
2022/12/22 09:42:18;;;;;;;10.30;5.62;;;;;;;3.39;76.64;99285.37;4470769;32;34526;-71
2022/12/22 09:44:49;;;;;;;5.40;4.15;;;;;;;3.69;74.95;99291.84;4457088;32;33450;-70
2022/12/22 09:47:17;;;;;;;2.42;2.10;;;;;;;3.50;76.17;99278.69;4470675;32;34034;-70
2022/12/22 09:49:45;;;;;;;2.28;2.17;;;;;;;3.76;76.41;99280.84;4470776;32;35032;-73
2022/12/22 09:52:37;;;;;;;2.47;1.73;;;;;;;3.22;79.22;99278.22;4470762;32;34538;-70
2022/12/22 09:55:14;;;;;;;8.15;1.60;;;;;;;3.76;75.80;99278.25;4455331;32;34248;-68
2022/12/22 09:57:45;;;;;;;3.47;3.28;;;;;;;3.76;75.63;99260.22;4429353;32;33877;-69
2022/12/22 10:00:23;;;;;;;6.25;4.72;;;;;;;3.69;77.27;99261.84;4440638;32;35745;-69
2022/12/22 10:03:38;;;;;;;3.17;2.60;;;;;;;3.82;77.24;99262.03;4440534;32;34555;-68
2022/12/22 10:06:33;;;;;;;3.15;2.78;;;;;;;4.49;73.51;99249.19;4440159;32;33579;-68
2022/12/22 10:09:15;;;;;;;7.25;6.10;;;;;;;5.50;70.67;99254.53;4427547;32;33746;-69
2022/12/22 10:12:21;;;;;;;5.85;4.75;;;;;;;6.69;67.43;99250.06;4443584;32;35750;-70
2022/12/22 10:14:53;;;;;;;1.40;1.30;;;;;;;7.14;63.46;99244.16;4454064;32;34351;-69
2022/12/22 10:17:32;;;;;;;3.40;2.67;;;;;;;6.81;63.81;99247.53;4454189;32;33894;-70
2022/12/22 10:20:21;;;;;;;4.80;3.58;;;;;;;7.20;63.91;99243.31;4454055;32;34810;-69
2022/12/22 10:23:03;;;;;;;1.58;1.48;;;;;;;6.95;62.55;99240.69;4458730;32;36009;-70
2022/12/22 10:25:35;;;;;;;2.35;1.95;;;;;;;6.58;62.93;99235.41;4455781;32;34833;-70
2022/12/22 10:28:48;;;;;;;2.62;2.42;;;;;;;6.76;62.98;99232.00;4438514;32;33414;-70
2022/12/22 10:31:21;;;;;;;1.48;1.42;;;;;;;6.62;62.13;99229.38;4438276;32;33544;-70
2022/12/22 10:33:56;;;;;;;3.20;2.55;;;;;;;5.78;65.83;99226.31;4438473;32;35804;-70
2022/12/22 10:36:32;;;;;;;3.35;2.70;;;;;;;6.04;65.80;99223.94;4424946;32;33184;-71
2022/12/22 10:39:11;;;;;;;3.03;2.65;;;;;;;5.42;69.70;99225.22;4437937;32;33698;-71
2022/12/22 10:41:48;;;;;;;12.37;5.05;;;;;;;5.56;68.00;99230.44;4424710;32;32396;-70
2022/12/22 10:44:33;;;;;;;2.53;2.15;;;;;;;5.72;68.29;99231.44;4437502;32;34900;-73
2022/12/22 10:47:26;;;;;;;3.30;2.67;;;;;;;6.16;66.83;99211.06;4438320;32;34404;-72
2022/12/22 10:50:19;;;;;;;2.75;2.15;;;;;;;6.31;66.57;99201.66;4438297;32;33451;-73
2022/12/22 10:53:19;;;;;;;3.53;3.17;;;;;;;6.19;66.61;99197.28;4438252;32;34031;-71
2022/12/22 10:56:08;;;;;;;5.22;4.78;;;;;;;6.14;64.71;99197.28;4438381;32;35122;-71
2022/12/22 10:59:16;;;;;;;14.10;7.95;;;;;;;5.85;67.15;99213.44;4425823;32;34724;-71
2022/12/22 11:02:28;;;;;;;4.05;3.75;;;;;;;5.86;67.52;99229.84;4437142;32;34434;-72
2022/12/22 11:05:10;;;;;;;2.22;2.10;;;;;;;6.11;65.04;99212.78;4437197;32;33562;-72
2022/12/22 11:07:45;;;;;;;2.90;2.70;;;;;;;5.15;68.50;99212.91;4424568;32;33616;-72
2022/12/22 11:10:58;;;;;;;3.08;2.87;;;;;;;5.81;66.95;99201.37;4437200;32;34589;-71
2022/12/22 11:13:47;;;;;;;1.50;1.40;;;;;;;5.84;66.32;99197.91;4436594;32;33408;-70
2022/12/22 11:16:39;;;;;;;5.47;5.07;;;;;;;5.39;70.17;99205.38;4437108;32;34307;-71
2022/12/22 11:19:28;;;;;;;1.42;1.40;;;;;;;5.55;67.85;99206.34;4437969;32;34973;-70
2022/12/22 11:22:16;;;;;;;4.87;4.40;;;;;;;5.57;68.33;99208.94;4436269;32;35421;-71
2022/12/22 11:24:55;;;;;;;8.32;4.90;;;;;;;5.35;68.26;99201.03;4437968;32;33488;-71
2022/12/22 11:27:45;;;;;;;5.55;3.95;;;;;;;5.11;70.69;99210.28;4459081;32;34067;-70
2022/12/22 11:30:27;;;;;;;1.65;1.55;;;;;;;4.81;71.60;99197.12;4462187;32;35042;-70
2022/12/22 11:33:16;;;;;;;4.78;1.73;;;;;;;5.08;71.39;99188.75;4452003;32;33831;-71
2022/12/22 11:36:05;;;;;;;2.55;2.45;;;;;;;4.74;72.79;99186.72;4468084;32;33381;-71
2022/12/22 11:38:45;;;;;;;2.67;1.73;;;;;;;5.27;70.46;99177.72;4468849;32;33587;-71
2022/12/22 11:41:33;;;;;;;4.03;3.28;;;;;;;4.78;73.26;99191.91;4468810;32;35014;-71
2022/12/22 11:44:47;;;;;;;2.92;2.72;;;;;;;4.90;72.16;99195.47;4469478;32;34486;-72
2022/12/22 11:47:47;;;;;;;1.37;1.27;;;;;;;4.86;74.44;99206.63;4469482;32;33729;-72
2022/12/22 11:50:31;;;;;;;2.85;2.53;;;;;;;5.29;70.76;99194.13;4454808;32;33886;-72
2022/12/22 11:53:44;;;;;;;1.67;1.58;;;;;;;4.62;74.60;99206.38;4469673;32;35209;-72
2022/12/22 11:56:18;;;;;;;2.62;2.40;;;;;;;5.09;71.54;99199.09;4469558;32;35353;-72
2022/12/22 11:59:19;;;;;;;7.57;5.65;;;;;;;4.71;73.00;99209.91;4469671;32;33515;-72
2022/12/22 12:01:47;;;;;;;1.50;1.45;;;;;;;5.19;71.20;99199.16;4451237;32;33986;-72
2022/12/22 12:04:22;;;;;;;3.42;3.17;;;;;;;5.21;71.00;99193.19;4452975;32;35852;-73
2022/12/22 12:07:12;;;;;;;0.98;0.98;;;;;;;5.55;69.83;99208.09;4451857;32;35281;-73
2022/12/22 12:09:54;;;;;;;4.28;3.92;;;;;;;5.13;72.40;99189.66;4452919;32;33538;-73
2022/12/22 12:13:15;;;;;;;6.47;5.05;;;;;;;4.94;75.37;99183.47;4453713;32;34964;-73
2022/12/22 12:16:19;;;;;;;2.42;2.33;;;;;;;5.45;73.83;99189.94;4453245;32;35797;-73
2022/12/22 12:19:21;;;;;;;1.12;1.05;;;;;;;5.71;71.43;99189.25;4452602;32;34317;-73
2022/12/22 12:22:01;;;;;;;12.27;4.87;;;;;;;5.59;70.42;99184.84;4452313;32;32862;-73
2022/12/22 12:24:46;;;;;;;1.52;1.52;;;;;;;5.40;70.72;99183.88;4452479;32;34798;-72
2022/12/22 12:27:46;;;;;;;1.90;1.77;;;;;;;5.48;71.39;99173.59;4453181;32;35045;-72
2022/12/22 12:30:16;;;;;;;8.15;4.20;;;;;;;5.63;70.12;99160.78;4452253;32;34553;-73
2022/12/22 12:33:18;;;;;;;1.65;1.55;;;;;;;5.77;69.63;99168.63;4452813;32;33415;-72
2022/12/22 12:35:50;;;;;;;3.28;3.03;;;;;;;4.66;75.51;99182.31;4453249;32;33996;-74
2022/12/22 12:38:25;;;;;;;2.87;2.62;;;;;;;5.16;73.02;99184.53;4453389;32;35034;-74
2022/12/22 12:41:46;;;;;;;2.75;2.28;;;;;;;5.34;73.01;99198.44;4453029;32;35122;-72
2022/12/22 12:44:17;;;;;;;7.12;4.12;;;;;;;4.87;77.44;99204.91;4451990;32;32707;-72
2022/12/22 12:46:55;;;;;;;2.62;2.37;;;;;;;5.36;73.94;99200.19;4452134;32;33615;-73
2022/12/22 12:49:35;;;;;;;5.75;3.62;;;;;;;4.98;74.39;99211.03;4453037;32;35036;-72
2022/12/22 12:52:05;;;;;;;5.82;4.25;;;;;;;5.41;73.97;99216.56;4452377;32;35092;-72
2022/12/22 12:54:45;;;;;;;2.97;2.35;;;;;;;5.36;72.81;99202.75;4451806;32;34553;-71
2022/12/22 12:57:28;;;;;;;1.70;1.60;;;;;;;5.06;74.36;99201.63;4466905;32;34549;-72
2022/12/22 12:59:58;;;;;;;2.83;2.65;;;;;;;5.32;73.42;99196.72;4468168;32;35049;-73
2022/12/22 13:02:26;;;;;;;3.65;2.25;;;;;;;4.98;73.53;99199.84;4468971;32;34245;-71
2022/12/22 13:05:10;;;;;;;2.62;2.05;;;;;;;4.81;75.07;99197.97;4471135;32;33444;-71
2022/12/22 13:08:15;;;;;;;1.33;1.33;;;;;;;4.93;76.05;99187.78;4471029;32;33845;-72
2022/12/22 13:10:47;;;;;;;1.70;1.60;;;;;;;5.30;74.75;99187.22;4417897;32;35698;-72
2022/12/22 13:13:24;;;;;;;1.02;1.02;;;;;;;5.80;72.80;99178.09;4471049;32;34285;-72
2022/12/22 13:16:01;;;;;;;2.85;2.65;;;;;;;6.10;71.19;99181.75;4471178;32;33353;-74
2022/12/22 13:18:34;;;;;;;2.62;2.45;;;;;;;6.21;70.24;99188.69;4470922;32;33970;-72
2022/12/22 13:21:06;;;;;;;11.48;2.90;;;;;;;5.62;71.31;99176.28;4470976;32;35936;-71
2022/12/22 13:23:54;;;;;;;1.45;1.37;;;;;;;5.57;70.75;99181.41;4446152;32;33668;-72
2022/12/22 13:26:44;;;;;;;1.08;1.08;;;;;;;5.42;72.10;99195.06;4470848;32;33335;-73
2022/12/22 13:29:28;;;;;;;2.97;2.78;;;;;;;5.45;72.52;99189.06;4470950;32;33856;-71
2022/12/22 13:32:00;;;;;;;3.22;2.25;;;;;;;5.16;74.48;99181.09;4456980;32;35140;-72
2022/12/22 13:34:39;;;;;;;5.82;2.25;;;;;;;5.34;73.33;99178.66;4457021;32;35203;-71
2022/12/22 13:37:28;;;;;;;7.40;4.07;;;;;;;4.70;75.20;99169.50;4470882;32;34337;-71
2022/12/22 13:40:15;;;;;;;2.53;2.37;;;;;;;5.00;74.65;99165.47;4456994;32;33766;-71
2022/12/22 13:42:55;;;;;;;3.75;3.55;;;;;;;5.09;73.91;99156.94;4456714;32;35974;-72
2022/12/22 13:45:35;;;;;;;1.80;1.70;;;;;;;5.11;74.33;99150.94;4456935;32;34579;-71
2022/12/22 13:48:23;;;;;;;1.23;1.23;;;;;;;4.91;75.34;99142.19;4457228;32;32584;-71
2022/12/22 13:51:03;;;;;;;1.73;1.62;;;;;;;5.11;74.49;99150.94;4456915;32;34697;-71
2022/12/22 13:53:46;;;;;;;4.20;1.87;;;;;;;5.20;72.96;99146.72;4470750;32;35951;-71
2022/12/22 13:56:42;;;;;;;1.85;1.75;;;;;;;5.44;72.17;99148.63;4470670;32;34382;-71
2022/12/22 13:59:30;;;;;;;3.00;2.80;;;;;;;5.80;70.64;99145.38;4443952;32;33683;-71
2022/12/22 14:02:08;;;;;;;2.92;2.75;;;;;;;5.41;72.51;99141.69;4456793;32;34500;-71
2022/12/22 14:04:39;;;;;;;3.33;3.03;;;;;;;5.60;72.09;99134.06;4470632;32;36026;-71
2022/12/22 14:07:15;;;;;;;1.08;1.08;;;;;;;5.23;73.83;99132.09;4470813;32;34558;-71
2022/12/22 14:09:45;;;;;;;2.97;2.80;;;;;;;5.27;73.70;99122.66;4456477;32;32744;-71
2022/12/22 14:12:17;;;;;;;2.00;1.75;;;;;;;5.21;73.67;99126.06;4470088;32;33854;-75
2022/12/22 14:14:48;;;;;;;4.82;4.53;;;;;;;5.14;74.37;99121.72;4456818;32;35997;-71
2022/12/22 14:17:50;;;;;;;8.13;3.22;;;;;;;5.02;74.91;99112.16;4456848;32;35235;-75
2022/12/22 14:20:25;;;;;;;1.10;1.10;;;;;;;4.63;76.60;99125.59;4469521;32;33417;-71
2022/12/22 14:23:06;;;;;;;7.47;6.28;;;;;;;4.41;77.37;99129.63;4456693;32;34694;-71
2022/12/22 14:25:39;;;;;;;1.12;1.08;;;;;;;4.65;76.49;99140.22;4470516;32;35822;-71
2022/12/22 14:28:36;;;;;;;0.90;0.90;;;;;;;4.51;77.81;99144.38;4453556;32;34295;-71
2022/12/22 14:31:05;;;;;;;;;;;;;;;4.24;78.67;99155.25;4455308;32;33569;-71
2022/12/22 14:33:34;;;;;;;3.00;2.90;;;;;;;3.97;80.59;99144.62;4453878;32;34024;-71
2022/12/22 14:36:22;;;;;;;3.58;3.35;;;;;;;4.05;80.48;99161.88;4453653;32;35316;-73
2022/12/22 14:38:58;;;;;;;9.65;6.57;;;;;;;3.31;85.06;99182.28;4453721;32;32795;-71
2022/12/22 14:41:49;;;;;;;7.22;4.85;;;;;;;3.98;83.62;99182.41;4454988;32;33641;-71
2022/12/22 14:44:18;;;;;;;4.53;4.22;;;;;;;3.72;83.82;99188.91;4455034;32;33471;-70
2022/12/22 14:47:05;;;;;;;1.17;1.17;;;;;;;3.55;87.86;99186.09;4454781;32;35030;-71
2022/12/22 14:49:35;;;;;;;5.22;4.78;;;;;;;3.55;86.79;99191.25;4453677;32;34583;-69
2022/12/22 14:52:07;;;;;;;3.60;3.28;;;;;;;4.40;83.47;99189.81;4453616;32;34169;-69
2022/12/22 14:54:38;;;;;;;0.70;0.70;;;;;;;3.92;86.93;99182.34;4453711;32;34648;-70
2022/12/22 14:57:10;;;;;;;2.05;1.55;;;;;;;3.57;87.42;99199.84;4454767;32;35128;-70
2022/12/22 15:00:07;;;;;;;9.48;8.57;;;;;;;3.54;87.86;99192.09;4454648;32;34582;-70
2022/12/22 15:02:38;;;;;;;28.87;21.00;;;;;;;3.75;87.70;99205.25;4453602;32;33437;-69
2022/12/22 15:05:16;;;;;;;10.02;9.32;;;;;;;4.22;85.03;99200.72;4453560;32;33819;-70
2022/12/22 15:07:50;;;;;;;2.45;2.35;;;;;;;3.97;84.53;99191.00;4440997;32;33525;-70
2022/12/22 15:10:41;;;;;;;14.05;10.15;;;;;;;3.99;84.59;99180.72;4453635;32;35093;-70
2022/12/22 15:13:15;;;;;;;27.75;8.77;;;;;;;4.39;82.69;99183.75;4454824;32;34420;-70
2022/12/22 15:15:44;;;;;;;4.57;4.28;;;;;;;4.30;82.41;99175.91;4439660;32;33552;-71
2022/12/22 15:18:13;;;;;;;2.58;2.47;;;;;;;4.02;83.80;99173.00;4453894;32;35914;-70
2022/12/22 15:20:41;;;;;;;1.87;1.80;;;;;;;4.17;83.77;99172.34;4453284;32;34746;-70
2022/12/22 15:23:15;;;;;;;1.12;1.12;;;;;;;4.70;80.80;99169.50;4453745;32;34150;-70
2022/12/22 15:25:44;;;;;;;1.15;1.15;;;;;;;4.67;80.68;99148.81;4454430;32;33875;-70
2022/12/22 15:28:14;;;;;;;1.90;1.80;;;;;;;4.43;81.35;99159.75;4464565;32;35940;-70
2022/12/22 15:30:42;;;;;;;1.65;1.58;;;;;;;4.04;84.74;99150.72;4468911;32;34414;-71
2022/12/22 15:33:13;;;;;;;3.60;3.40;;;;;;;4.35;82.79;99156.22;4454424;32;33601;-71
2022/12/22 15:35:42;;;;;;;10.93;9.88;;;;;;;4.36;82.64;99148.50;4454862;32;34816;-74
2022/12/22 15:38:16;;;;;;;3.15;2.95;;;;;;;4.92;80.09;99138.72;4453487;32;35010;-72
2022/12/22 15:40:44;;;;;;;1.92;1.67;;;;;;;4.34;82.44;99133.84;4453260;32;35297;-73
2022/12/22 15:43:13;;;;;;;3.35;2.75;;;;;;;4.66;81.31;99130.75;4463297;32;34275;-72
2022/12/22 15:46:04;;;;;;;1.70;1.60;;;;;;;4.82;79.92;99131.75;4454297;32;33836;-74
2022/12/22 15:48:34;;;;;;;1.85;1.75;;;;;;;4.33;81.73;99114.97;4454904;32;35886;-73
2022/12/22 15:51:05;;;;;;;3.28;3.03;;;;;;;3.77;84.88;99120.31;4452990;32;34426;-73
2022/12/22 15:53:35;;;;;;;3.55;3.22;;;;;;;3.77;84.21;99118.59;4452934;32;33482;-74
2022/12/22 15:56:05;;;;;;;1.83;1.75;;;;;;;3.42;85.69;99119.00;4440451;32;34000;-73
2022/12/22 15:58:39;;;;;;;3.67;3.37;;;;;;;3.72;86.23;99111.66;4460473;32;34892;-74